Time;durP1;ratioP1;P1;durP2;ratioP2;P2;SDS_P1;SDS_P2;PMS_P1;PMS_P2;Temp;Humidity;BMP_temperature;BMP_pressure;BME280_temperature;BME280_humidity;BME280_pressure;Samples;Min_cycle;Max_cycle;Signal;HPM_P1;HPM_P2
2022/03/27 00:01:45;;;;;;;21.60;11.50;;;9.80;99.90;;;;;;5077425;28;20237;-68
2022/03/27 00:04:12;;;;;;;17.60;11.68;;;9.70;99.90;;;;;;5077000;28;20242;-68
2022/03/27 00:06:38;;;;;;;20.70;10.98;;;9.70;99.90;;;;;;5076526;28;20215;-68
2022/03/27 00:09:05;;;;;;;17.83;11.38;;;9.70;99.90;;;;;;5077174;28;20200;-67
2022/03/27 00:11:31;;;;;;;15.57;10.60;;;9.70;99.90;;;;;;5077239;28;20572;-68
2022/03/27 00:14:03;;;;;;;17.92;11.88;;;9.60;99.90;;;;;;5077725;28;20552;-69
2022/03/27 00:16:30;;;;;;;14.60;10.70;;;9.60;99.90;;;;;;5077339;28;20226;-67
2022/03/27 00:18:57;;;;;;;16.45;10.15;;;9.60;99.90;;;;;;5076149;28;20208;-68
2022/03/27 00:21:24;;;;;;;17.25;10.27;;;9.60;99.90;;;;;;5077178;28;20208;-68
2022/03/27 00:23:52;;;;;;;18.27;10.70;;;9.60;99.90;;;;;;5076626;28;20204;-68
2022/03/27 00:26:20;;;;;;;19.67;11.23;;;9.60;99.90;;;;;;5076799;28;20212;-67
2022/03/27 00:28:48;;;;;;;18.48;11.75;;;9.60;99.90;;;;;;5076669;28;20226;-68
2022/03/27 00:31:15;;;;;;;15.55;10.15;;;9.60;99.90;;;;;;5076929;28;20196;-67
2022/03/27 00:33:43;;;;;;;18.30;11.27;;;9.50;99.90;;;;;;5075630;28;20202;-67
2022/03/27 00:36:13;;;;;;;19.73;12.82;;;9.40;99.90;;;;;;5076430;28;20231;-67
2022/03/27 00:38:41;;;;;;;19.20;11.88;;;9.30;99.90;;;;;;5075935;28;20280;-67
2022/03/27 00:41:08;;;;;;;17.10;11.77;;;9.20;99.90;;;;;;5076054;28;20569;-67
2022/03/27 00:43:35;;;;;;;18.67;13.20;;;9.10;99.90;;;;;;5075878;28;20275;-67
2022/03/27 00:46:02;;;;;;;14.02;11.07;;;9.00;99.90;;;;;;5076199;28;20208;-67
2022/03/27 00:48:29;;;;;;;22.27;13.02;;;8.90;99.90;;;;;;5075723;28;20207;-67
2022/03/27 00:50:56;;;;;;;15.85;12.32;;;8.80;99.90;;;;;;5076053;28;20200;-67
2022/03/27 00:53:22;;;;;;;21.50;11.90;;;8.70;99.90;;;;;;5075101;28;20208;-67
2022/03/27 00:55:48;;;;;;;19.02;12.70;;;8.70;99.90;;;;;;5075290;28;20285;-67
2022/03/27 00:58:18;;;;;;;18.67;11.50;;;8.60;99.90;;;;;;5075838;28;20208;-67
2022/03/27 01:01:09;;;;;;;18.58;12.05;;;8.60;99.90;;;;;;5076168;28;20200;-68
2022/03/27 01:03:37;;;;;;;18.95;12.48;;;8.50;1.00;;;;;;5076016;28;20185;-68
2022/03/27 01:06:03;;;;;;;18.92;13.30;;;8.40;1.00;;;;;;5076633;28;20227;-68
2022/03/27 01:11:21;;;;;;;19.60;12.93;;;8.40;1.00;;;;;;5076195;28;20598;-68
2022/03/27 01:13:57;;;;;;;19.17;12.77;;;8.30;1.00;;;;;;5075853;28;20199;-69
2022/03/27 01:16:43;;;;;;;19.98;12.52;;;8.20;1.00;;;;;;5076318;28;20652;-69
2022/03/27 01:19:11;;;;;;;19.40;13.32;;;8.20;1.00;;;;;;5075921;28;20184;-69
2022/03/27 01:21:40;;;;;;;21.42;12.90;;;8.20;99.90;;;;;;5075596;28;20203;-69
2022/03/27 01:24:09;;;;;;;17.83;12.63;;;8.10;1.00;;;;;;5076087;28;20204;-69
2022/03/27 01:26:37;;;;;;;19.33;12.82;;;8.10;1.00;;;;;;5075782;28;20208;-69
2022/03/27 01:29:05;;;;;;;16.48;12.35;;;8.10;1.00;;;;;;5075599;28;20211;-69
2022/03/27 01:31:35;;;;;;;25.42;12.52;;;8.10;99.90;;;;;;5075841;28;20254;-69
2022/03/27 01:34:03;;;;;;;20.13;13.50;;;8.00;1.00;;;;;;5076369;28;20195;-69
2022/03/27 01:36:36;;;;;;;20.92;13.43;;;8.00;99.90;;;;;;5076038;28;20207;-69
2022/03/27 01:39:08;;;;;;;15.95;12.63;;;8.00;1.00;;;;;;5076334;28;20189;-69
2022/03/27 01:41:35;;;;;;;24.95;15.13;;;7.90;85.10;;;;;;5075840;28;20229;-68
2022/03/27 01:44:04;;;;;;;19.20;13.10;;;7.90;1.00;;;;;;5076066;28;20218;-68
2022/03/27 01:46:35;;;;;;;17.88;12.43;;;7.80;1.00;;;;;;5075848;28;20279;-68
2022/03/27 01:49:04;;;;;;;20.58;13.93;;;7.80;1.00;;;;;;5075946;28;20184;-69
2022/03/27 01:51:31;;;;;;;16.67;14.00;;;7.80;1.00;;;;;;5075621;28;20261;-69
2022/03/27 01:53:59;;;;;;;23.90;14.05;;;7.80;1.00;;;;;;5074329;28;20671;-68
2022/03/27 01:56:26;;;;;;;17.45;10.98;;;7.80;1.00;;;;;;5075087;28;20232;-69
2022/03/27 01:58:52;;;;;;;16.08;11.45;;;7.80;1.00;;;;;;5073898;28;20596;-69
2022/03/27 02:01:20;;;;;;;14.48;10.95;;;8.00;1.00;;;;;;5074801;28;20200;-69
2022/03/27 02:03:47;;;;;;;15.43;12.00;;;8.10;1.00;;;;;;5075270;28;20292;-68
2022/03/27 02:06:15;;;;;;;17.25;12.98;;;8.20;1.00;;;;;;5075822;28;20238;-68
2022/03/27 02:08:43;;;;;;;15.80;11.95;;;8.20;1.00;;;;;;5076488;28;20567;-69
2022/03/27 02:11:09;;;;;;;18.45;11.80;;;8.30;1.00;;;;;;5077082;28;20207;-69
2022/03/27 02:13:36;;;;;;;18.10;11.93;;;8.30;1.00;;;;;;5075212;28;20566;-69
2022/03/27 02:16:03;;;;;;;15.15;11.98;;;8.30;1.00;;;;;;5075864;28;20219;-69
2022/03/27 02:18:31;;;;;;;16.60;10.90;;;8.40;1.00;;;;;;5077045;28;20286;-69
2022/03/27 02:21:00;;;;;;;16.05;10.82;;;8.40;1.00;;;;;;5076069;28;20612;-69
2022/03/27 02:23:27;;;;;;;14.20;11.65;;;8.40;1.00;;;;;;5076409;28;20200;-68
2022/03/27 02:25:55;;;;;;;15.88;11.95;;;8.40;1.00;;;;;;5076314;28;20199;-69
2022/03/27 02:28:22;;;;;;;15.57;11.25;;;8.40;1.00;;;;;;5076229;28;20202;-69
2022/03/27 02:30:48;;;;;;;14.48;10.63;;;8.30;1.00;;;;;;5074563;28;20208;-68
2022/03/27 02:33:16;;;;;;;15.20;11.52;;;8.30;1.00;;;;;;5076441;28;20563;-68
2022/03/27 02:35:42;;;;;;;16.10;11.77;;;8.30;1.00;;;;;;5075679;28;20227;-68
2022/03/27 02:38:09;;;;;;;20.20;12.20;;;8.20;1.00;;;;;;5075020;28;20659;-69
2022/03/27 02:40:37;;;;;;;18.67;12.55;;;8.20;1.00;;;;;;5076125;28;20196;-68
2022/03/27 02:43:04;;;;;;;20.23;11.93;;;8.20;1.00;;;;;;5074686;28;20203;-68
2022/03/27 02:45:32;;;;;;;17.63;11.85;;;8.20;1.00;;;;;;5075629;28;20550;-68
2022/03/27 02:47:59;;;;;;;15.73;10.88;;;8.10;1.00;;;;;;5076342;28;20204;-69
2022/03/27 02:50:27;;;;;;;18.38;11.52;;;8.10;1.00;;;;;;5076383;28;20233;-68
2022/03/27 02:52:54;;;;;;;14.70;12.07;;;8.10;1.00;;;;;;5076282;28;20290;-68
2022/03/27 02:55:21;;;;;;;18.35;12.38;;;8.10;1.00;;;;;;5076225;28;20281;-69
2022/03/27 02:57:47;;;;;;;15.60;12.30;;;8.00;1.00;;;;;;5076178;28;20606;-69
2022/03/27 03:00:14;;;;;;;16.15;12.25;;;8.10;1.00;;;;;;5075849;28;20678;-68
2022/03/27 03:02:41;;;;;;;16.23;11.88;;;8.10;1.00;;;;;;5076225;28;20196;-68
2022/03/27 03:05:09;;;;;;;18.17;10.70;;;8.10;1.00;;;;;;5074324;28;20304;-68
2022/03/27 03:07:41;;;;;;;14.70;11.30;;;8.10;1.00;;;;;;5076189;28;20212;-68
2022/03/27 03:10:09;;;;;;;14.30;11.27;;;8.20;1.00;;;;;;5075522;28;20682;-68
2022/03/27 03:12:36;;;;;;;16.42;11.48;;;8.10;1.00;;;;;;5075984;28;20219;-69
2022/03/27 03:15:03;;;;;;;17.20;11.85;;;8.10;1.00;;;;;;5074871;28;20227;-68
2022/03/27 03:17:30;;;;;;;16.00;12.70;;;8.10;1.00;;;;;;5075633;28;20200;-68
2022/03/27 03:19:56;;;;;;;15.20;10.77;;;8.10;1.00;;;;;;5074757;28;20204;-69
2022/03/27 03:22:23;;;;;;;16.25;12.93;;;8.10;1.00;;;;;;5075801;28;20200;-68
2022/03/27 03:24:52;;;;;;;17.05;12.20;;;8.10;1.00;;;;;;5075639;28;20299;-68
2022/03/27 03:27:19;;;;;;;19.35;13.38;;;8.10;1.00;;;;;;5074445;28;20215;-68
2022/03/27 03:29:45;;;;;;;17.27;11.07;;;8.10;1.00;;;;;;5075003;28;20204;-69
2022/03/27 03:32:12;;;;;;;22.08;12.10;;;8.10;1.00;;;;;;5077496;28;20208;-69
2022/03/27 03:34:39;;;;;;;15.27;12.07;;;8.10;1.00;;;;;;5074560;28;20656;-68
2022/03/27 03:37:05;;;;;;;17.23;11.88;;;8.20;1.00;;;;;;5075280;28;20207;-68
2022/03/27 03:39:31;;;;;;;21.98;12.30;;;8.20;1.00;;;;;;5077059;28;20255;-68
2022/03/27 03:41:58;;;;;;;14.50;11.43;;;8.20;1.00;;;;;;5079727;28;20233;-68
2022/03/27 03:44:26;;;;;;;18.10;11.80;;;8.10;1.00;;;;;;5079267;28;20204;-68
2022/03/27 03:46:54;;;;;;;16.08;11.25;;;8.10;1.00;;;;;;5079259;28;20777;-68
2022/03/27 03:49:21;;;;;;;20.25;12.32;;;8.10;1.00;;;;;;5078385;28;20683;-68
2022/03/27 03:51:47;;;;;;;19.13;11.82;;;8.10;1.00;;;;;;5078457;28;20200;-68
2022/03/27 03:54:13;;;;;;;22.38;11.52;;;8.10;1.00;;;;;;5076898;28;20199;-68
2022/03/27 03:56:40;;;;;;;17.15;12.05;;;8.00;1.00;;;;;;5077681;28;20224;-68
2022/03/27 03:59:06;;;;;;;17.63;11.80;;;8.00;1.00;;;;;;5077288;28;20646;-68
2022/03/27 04:01:33;;;;;;;17.50;12.82;;;8.00;1.00;;;;;;5077739;28;20211;-68
2022/03/27 04:03:59;;;;;;;19.48;12.60;;;7.90;1.00;;;;;;5077235;28;20353;-68
2022/03/27 04:06:26;;;;;;;16.05;12.90;;;7.90;1.00;;;;;;5078233;28;20249;-68
2022/03/27 04:08:53;;;;;;;24.08;10.95;;;7.90;1.00;;;;;;5078802;28;20204;-68
2022/03/27 04:11:19;;;;;;;16.25;12.27;;;7.90;1.00;;;;;;5077997;28;20262;-68
2022/03/27 04:13:46;;;;;;;16.60;12.90;;;7.90;1.00;;;;;;5077947;28;20200;-68
2022/03/27 04:16:13;;;;;;;20.50;11.60;;;7.90;1.00;;;;;;5077827;28;20252;-68
2022/03/27 04:18:40;;;;;;;21.75;11.27;;;7.90;1.00;;;;;;5077941;28;20200;-68
2022/03/27 04:21:07;;;;;;;21.63;12.70;;;7.80;1.00;;;;;;5078412;28;20196;-67
2022/03/27 04:23:34;;;;;;;15.82;12.77;;;7.80;1.00;;;;;;5077925;28;20252;-67
2022/03/27 04:26:00;;;;;;;16.15;11.18;;;7.80;1.00;;;;;;5078543;28;20216;-67
2022/03/27 04:28:26;;;;;;;20.95;13.48;;;7.80;1.00;;;;;;5077955;28;20612;-67
2022/03/27 04:30:53;;;;;;;18.27;13.02;;;7.80;1.00;;;;;;5076661;28;20211;-67
2022/03/27 04:33:19;;;;;;;18.30;12.60;;;7.90;1.00;;;;;;5077868;28;20226;-67
2022/03/27 04:35:46;;;;;;;16.80;12.68;;;7.90;1.00;;;;;;5077435;28;20211;-67
2022/03/27 04:38:13;;;;;;;16.17;12.40;;;7.80;1.00;;;;;;5077276;28;20709;-67
2022/03/27 04:40:40;;;;;;;20.00;12.90;;;7.80;1.00;;;;;;5077829;28;20254;-68
2022/03/27 04:43:06;;;;;;;19.48;12.45;;;7.80;1.00;;;;;;5077314;28;20233;-68
2022/03/27 04:45:33;;;;;;;17.08;13.30;;;7.80;1.00;;;;;;5077434;28;20253;-68
2022/03/27 04:47:59;;;;;;;21.85;13.07;;;7.70;1.00;;;;;;5078102;28;20199;-68
2022/03/27 04:50:26;;;;;;;20.85;13.95;;;7.70;1.00;;;;;;5077244;28;20219;-68
2022/03/27 04:52:52;;;;;;;17.45;12.50;;;7.70;1.00;;;;;;5076964;28;20260;-68
2022/03/27 04:55:19;;;;;;;18.15;12.80;;;7.70;1.00;;;;;;5077749;28;20565;-68
2022/03/27 04:57:45;;;;;;;21.02;13.07;;;7.70;1.00;;;;;;5077621;28;20230;-68
2022/03/27 05:00:17;;;;;;;21.90;13.55;;;7.70;1.00;;;;;;5078276;28;20199;-68
2022/03/27 05:02:44;;;;;;;19.08;12.23;;;7.60;1.00;;;;;;5077964;28;20514;-68
2022/03/27 05:05:12;;;;;;;23.45;13.00;;;7.60;1.00;;;;;;5076924;28;20263;-68
2022/03/27 05:07:43;;;;;;;16.95;11.88;;;7.60;1.00;;;;;;5077191;28;20200;-68
2022/03/27 05:10:11;;;;;;;15.95;12.60;;;7.70;1.00;;;;;;5076873;28;20302;-68
2022/03/27 05:12:38;;;;;;;15.25;12.05;;;7.60;99.90;;;;;;5077782;28;20232;-67
2022/03/27 05:15:06;;;;;;;17.10;13.02;;;7.70;1.00;;;;;;5077369;28;20211;-67
2022/03/27 05:17:33;;;;;;;17.70;13.00;;;7.70;1.00;;;;;;5076850;28;20215;-67
2022/03/27 05:20:03;;;;;;;20.75;13.60;;;7.60;1.00;;;;;;5075255;28;20562;-67
2022/03/27 05:22:29;;;;;;;17.40;13.80;;;7.60;1.00;;;;;;5075508;28;20206;-68
2022/03/27 05:24:55;;;;;;;19.67;12.98;;;7.50;1.00;;;;;;5076897;28;20202;-68
2022/03/27 05:27:22;;;;;;;18.42;14.30;;;7.40;1.00;;;;;;5075970;28;20280;-68
2022/03/27 05:29:49;;;;;;;14.20;12.65;;;7.20;1.00;;;;;;5075968;28;20196;-68
2022/03/27 05:32:15;;;;;;;19.33;13.15;;;7.10;1.00;;;;;;5077268;28;20671;-67
2022/03/27 05:34:41;;;;;;;16.70;12.30;;;7.10;1.00;;;;;;5076217;28;20675;-68
2022/03/27 05:37:08;;;;;;;28.92;14.93;;;7.00;1.00;;;;;;5077435;28;20648;-68
2022/03/27 05:39:35;;;;;;;17.48;12.77;;;6.90;1.00;;;;;;5076792;28;20566;-68
2022/03/27 05:42:02;;;;;;;17.00;13.15;;;6.80;1.00;;;;;;5077830;28;20203;-68
2022/03/27 05:44:28;;;;;;;20.60;13.05;;;6.90;1.00;;;;;;5075925;28;20207;-69
2022/03/27 05:46:55;;;;;;;17.70;12.55;;;6.90;39.60;;;;;;5077085;28;20208;-69
2022/03/27 05:49:21;;;;;;;18.33;13.32;;;7.00;99.90;;;;;;5077192;28;20211;-69
2022/03/27 05:51:48;;;;;;;17.00;12.98;;;7.20;38.80;;;;;;5076838;28;20210;-70
2022/03/27 05:54:14;;;;;;;16.20;12.80;;;7.20;99.90;;;;;;5076832;28;20208;-68
2022/03/27 05:56:41;;;;;;;19.08;13.55;;;7.30;1.00;;;;;;5076420;28;20228;-68
2022/03/27 05:59:07;;;;;;;16.48;11.98;;;7.40;1.00;;;;;;5075355;28;20206;-67
2022/03/27 06:01:33;;;;;;;20.30;12.25;;;7.40;1.00;;;;;;5075645;28;20207;-67
2022/03/27 06:04:00;;;;;;;15.63;11.85;;;7.50;1.00;;;;;;5075900;28;20585;-68
2022/03/27 06:06:29;;;;;;;21.33;13.32;;;7.60;99.90;;;;;;5076914;28;20228;-68
2022/03/27 06:08:57;;;;;;;21.67;13.30;;;7.60;99.90;;;;;;5076949;28;20256;-68
2022/03/27 06:11:24;;;;;;;19.92;13.70;;;7.70;51.00;;;;;;5076290;28;20199;-69
2022/03/27 06:13:51;;;;;;;20.83;13.55;;;7.90;1.00;;;;;;5076890;28;20211;-68
2022/03/27 06:16:17;;;;;;;19.38;12.43;;;8.00;28.50;;;;;;5076117;28;20216;-68
2022/03/27 06:18:44;;;;;;;20.80;14.02;;;8.10;1.00;;;;;;5076066;28;20200;-69
2022/03/27 06:21:10;;;;;;;19.35;13.00;;;8.20;1.00;;;;;;5074996;28;20819;-68
2022/03/27 06:23:37;;;;;;;16.25;11.98;;;8.30;99.90;;;;;;5074223;28;20558;-68
2022/03/27 06:26:03;;;;;;;19.10;14.00;;;8.50;1.00;;;;;;5074178;28;20663;-68
2022/03/27 06:28:30;;;;;;;20.67;12.60;;;8.70;1.00;;;;;;5074681;28;20201;-68
2022/03/27 06:30:57;;;;;;;18.83;11.70;;;8.70;69.90;;;;;;5073318;28;20226;-68
2022/03/27 06:33:23;;;;;;;16.88;13.05;;;8.80;99.90;;;;;;5075442;28;20211;-68
2022/03/27 06:35:50;;;;;;;22.23;12.30;;;8.90;1.00;;;;;;5074434;28;20250;-68
2022/03/27 06:38:17;;;;;;;17.27;13.13;;;8.90;1.00;;;;;;5074023;28;20230;-71
2022/03/27 06:40:44;;;;;;;19.60;13.73;;;9.00;1.00;;;;;;5073940;28;20210;-68
2022/03/27 06:43:10;;;;;;;21.70;13.25;;;9.10;99.90;;;;;;5073830;28;20199;-68
2022/03/27 06:45:38;;;;;;;16.30;12.43;;;9.10;99.90;;;;;;5074701;28;20576;-68
2022/03/27 06:48:05;;;;;;;18.75;13.38;;;9.20;1.00;;;;;;5075158;28;20203;-68
2022/03/27 06:50:32;;;;;;;17.17;13.00;;;9.30;99.90;;;;;;5074551;28;20260;-68
2022/03/27 06:52:58;;;;;;;21.50;13.10;;;9.30;1.00;;;;;;5073901;28;20208;-68
2022/03/27 06:55:27;;;;;;;18.23;13.35;;;9.30;93.60;;;;;;5072461;28;20746;-68
2022/03/27 06:57:53;;;;;;;18.50;13.27;;;9.40;1.00;;;;;;5073139;28;20203;-68
2022/03/27 07:03:06;;;;;;;22.95;13.85;;;9.60;1.00;;;;;;5073679;28;20612;-68
2022/03/27 07:05:39;;;;;;;18.30;13.30;;;9.70;1.00;;;;;;5073548;28;20756;-68
2022/03/27 07:08:09;;;;;;;17.00;12.65;;;9.80;1.00;;;;;;5074077;28;20192;-68
2022/03/27 07:10:37;;;;;;;18.60;13.63;;;9.90;31.70;;;;;;5075273;28;20200;-68
2022/03/27 07:13:05;;;;;;;18.42;13.55;;;10.00;1.00;;;;;;5074898;28;20659;-68
2022/03/27 07:15:32;;;;;;;19.60;13.63;;;10.10;1.00;;;;;;5077237;28;20207;-68
2022/03/27 07:17:59;;;;;;;19.73;12.93;;;10.30;99.90;;;;;;5079230;28;20253;-68
2022/03/27 07:20:27;;;;;;;24.05;15.80;;;10.40;99.90;;;;;;5079294;28;20207;-69
2022/03/27 07:22:56;;;;;;;20.35;14.60;;;10.50;1.00;;;;;;5077502;28;20574;-68
2022/03/27 07:25:24;;;;;;;20.30;13.95;;;10.60;99.90;;;;;;5076908;28;20200;-68
2022/03/27 07:27:51;;;;;;;22.08;14.00;;;10.70;1.00;;;;;;5076947;28;20200;-68
2022/03/27 07:30:18;;;;;;;19.52;13.82;;;10.80;99.90;;;;;;5077325;28;20200;-68
2022/03/27 07:32:45;;;;;;;18.23;14.25;;;10.90;1.00;;;;;;5076543;28;20204;-68
2022/03/27 07:35:14;;;;;;;19.02;14.65;;;11.00;1.00;;;;;;5076703;28;20728;-69
2022/03/27 07:37:42;;;;;;;18.08;13.90;;;11.00;99.90;;;;;;5076654;28;20228;-68
2022/03/27 07:40:10;;;;;;;20.35;13.98;;;11.20;1.00;;;;;;5076417;28;20196;-69
2022/03/27 07:42:39;;;;;;;15.77;12.93;;;11.30;99.90;;;;;;5077767;28;20207;-68
2022/03/27 07:45:07;;;;;;;22.48;14.15;;;11.40;99.90;;;;;;5075030;28;20560;-68
2022/03/27 07:47:34;;;;;;;18.77;13.32;;;11.60;1.00;;;;;;5076282;28;20200;-69
2022/03/27 07:50:01;;;;;;;15.65;11.90;;;11.80;1.00;;;;;;5076445;28;20203;-68
2022/03/27 07:52:28;;;;;;;19.35;13.80;;;11.90;1.00;;;;;;5076813;28;20648;-69
2022/03/27 07:54:54;;;;;;;17.10;12.23;;;12.00;1.00;;;;;;5076026;28;20281;-69
2022/03/27 07:57:21;;;;;;;17.65;12.43;;;12.10;99.90;;;;;;5075698;28;20219;-69
2022/03/27 07:59:48;;;;;;;16.35;12.43;;;12.10;99.90;;;;;;5077118;28;20254;-69
2022/03/27 08:02:15;;;;;;;14.98;12.90;;;12.20;1.00;;;;;;5077818;28;20200;-68
2022/03/27 08:04:42;;;;;;;17.30;13.13;;;12.20;1.00;;;;;;5077021;28;20232;-69
2022/03/27 08:07:08;;;;;;;19.52;11.57;;;12.30;1.00;;;;;;5077238;28;20634;-69
2022/03/27 08:09:35;;;;;;;17.70;11.47;;;12.40;1.00;;;;;;5075908;28;20200;-69
2022/03/27 08:12:02;;;;;;;24.30;11.53;;;12.40;1.00;;;;;;5075433;28;21192;-69
2022/03/27 08:14:31;;;;;;;26.73;13.43;;;12.50;1.00;;;;;;5075337;28;20626;-69
2022/03/27 08:16:58;;;;;;;17.53;12.73;;;12.60;99.90;;;;;;5075500;28;20220;-69
2022/03/27 08:19:25;;;;;;;15.07;11.57;;;12.70;99.90;;;;;;5074386;28;20622;-72
2022/03/27 08:21:53;;;;;;;13.30;11.13;;;12.90;99.90;;;;;;5075372;28;20956;-69
2022/03/27 08:24:20;;;;;;;15.13;12.50;;;12.90;99.90;;;;;;5075534;28;21049;-68
2022/03/27 08:27:03;;;;;;;13.70;12.10;;;13.00;99.90;;;;;;5074266;28;20747;-69
2022/03/27 08:29:35;;;;;;;14.80;12.40;;;13.20;99.90;;;;;;5075103;28;21117;-69
2022/03/27 08:32:04;;;;;;;13.47;11.40;;;13.40;1.00;;;;;;5075102;28;21014;-69
2022/03/27 08:34:32;;;;;;;16.35;12.65;;;13.40;1.00;;;;;;5075067;28;20610;-69
2022/03/27 08:37:01;;;;;;;14.27;11.73;;;13.50;1.00;;;;;;5075788;28;20698;-69
2022/03/27 08:39:27;;;;;;;16.37;12.13;;;13.50;99.90;;;;;;5076520;28;20633;-68
2022/03/27 08:41:55;;;;;;;15.77;11.87;;;13.80;99.90;;;;;;5076933;28;20638;-68
2022/03/27 08:44:23;;;;;;;17.80;10.90;;;13.80;1.00;;;;;;5076184;28;20668;-68
2022/03/27 08:46:51;;;;;;;16.87;11.47;;;14.00;1.00;;;;;;5076042;28;21168;-68
2022/03/27 08:49:29;;;;;;;22.90;12.83;;;13.90;1.00;;;;;;5076742;28;20618;-68
2022/03/27 08:52:00;;;;;;;18.20;13.97;;;14.00;1.00;;;;;;5076560;28;20630;-67
2022/03/27 08:54:34;;;;;;;18.80;12.47;;;14.20;1.00;;;;;;5076071;28;21017;-68
2022/03/27 08:57:08;;;;;;;15.10;12.70;;;14.30;99.20;;;;;;5076108;28;20637;-68
2022/03/27 08:59:38;;;;;;;19.43;12.80;;;14.10;99.90;;;;;;5075944;28;20679;-68
2022/03/27 09:02:04;;;;;;;21.83;13.60;;;14.30;1.00;;;;;;5074160;28;20617;-68
2022/03/27 09:04:31;;;;;;;16.73;12.93;;;14.50;99.90;;;;;;5075197;28;20642;-68
2022/03/27 09:07:01;;;;;;;19.80;12.57;;;14.70;1.00;;;;;;5076353;28;20642;-68
2022/03/27 09:09:32;;;;;;;18.00;11.70;;;14.60;1.00;;;;;;5076011;28;20639;-68
2022/03/27 09:11:59;;;;;;;18.03;11.97;;;14.70;1.00;;;;;;5076126;28;20590;-69
2022/03/27 09:14:27;;;;;;;17.20;12.50;;;14.60;1.00;;;;;;5074723;28;20600;-69
2022/03/27 09:17:20;;;;;;;17.33;12.20;;;14.70;1.00;;;;;;5074791;28;20661;-69
2022/03/27 09:19:48;;;;;;;15.43;12.50;;;14.50;1.00;;;;;;5072434;28;21200;-69
2022/03/27 09:22:27;;;;;;;17.30;12.07;;;14.80;1.00;;;;;;5075105;28;20668;-68
2022/03/27 09:25:04;;;;;;;17.13;12.43;;;14.90;1.00;;;;;;5074528;28;20593;-68
2022/03/27 09:27:36;;;;;;;16.93;11.87;;;15.20;1.00;;;;;;5074699;28;21022;-69
2022/03/27 09:30:07;;;;;;;24.17;12.73;;;15.20;1.00;;;;;;5075453;28;20614;-69
2022/03/27 09:32:36;;;;;;;17.80;12.63;;;15.40;1.00;;;;;;5075060;28;20634;-69
2022/03/27 09:35:25;;;;;;;17.77;12.57;;;15.40;1.00;;;;;;5075374;28;21176;-68
2022/03/27 09:37:52;;;;;;;21.87;11.90;;;15.40;1.00;;;;;;5075271;28;20978;-68
2022/03/27 09:40:18;;;;;;;17.47;12.40;;;15.40;1.00;;;;;;5075789;28;20614;-68
2022/03/27 09:42:47;;;;;;;15.20;12.40;;;15.60;1.00;;;;;;5076280;28;20663;-68
2022/03/27 09:45:23;;;;;;;15.73;12.20;;;15.60;1.00;;;;;;5076673;28;20619;-68
2022/03/27 09:47:52;;;;;;;17.07;12.50;;;15.70;1.00;;;;;;5076372;28;21034;-68
2022/03/27 09:50:34;;;;;;;23.77;13.60;;;15.80;1.00;;;;;;5076705;28;20713;-68
2022/03/27 09:53:23;;;;;;;14.53;12.00;;;15.90;1.00;;;;;;5076275;28;20574;-69
2022/03/27 09:56:01;;;;;;;16.07;12.47;;;16.10;99.90;;;;;;5076547;28;20625;-68
2022/03/27 09:58:44;;;;;;;17.10;13.27;;;16.30;99.90;;;;;;5076789;28;20667;-68
2022/03/27 10:01:16;;;;;;;14.50;12.57;;;16.40;1.00;;;;;;5075198;28;20613;-69
2022/03/27 10:04:13;;;;;;;14.60;12.40;;;16.60;1.00;;;;;;5075662;28;20734;-68
2022/03/27 10:06:41;;;;;;;17.17;12.17;;;16.20;1.00;;;;;;5075749;28;20648;-68
2022/03/27 10:09:12;;;;;;;16.60;12.83;;;16.30;1.00;;;;;;5074321;28;20675;-68
2022/03/27 10:11:41;;;;;;;16.67;12.43;;;16.50;1.00;;;;;;5074725;28;20609;-68
2022/03/27 10:14:09;;;;;;;14.67;12.13;;;16.70;1.00;;;;;;5074422;28;20622;-69
2022/03/27 10:16:38;;;;;;;18.27;12.83;;;16.80;1.00;;;;;;5074376;28;20665;-69
2022/03/27 10:19:17;;;;;;;17.23;13.07;;;17.10;12.20;;;;;;5074365;28;20610;-69
2022/03/27 10:21:46;;;;;;;16.00;11.87;;;17.10;1.00;;;;;;5073978;28;21085;-69
2022/03/27 10:24:15;;;;;;;18.87;13.40;;;17.20;1.00;;;;;;5074556;28;20610;-69
2022/03/27 10:26:44;;;;;;;15.23;12.30;;;17.30;1.00;;;;;;5074029;28;20681;-69
2022/03/27 10:29:13;;;;;;;18.33;13.10;;;17.30;1.00;;;;;;5074506;28;20614;-69
2022/03/27 10:31:39;;;;;;;18.40;11.00;;;17.10;1.00;;;;;;5074124;28;20630;-69
2022/03/27 10:34:08;;;;;;;16.67;12.80;;;17.20;1.00;;;;;;5072917;28;20623;-69
2022/03/27 10:36:54;;;;;;;25.40;13.40;;;17.50;1.00;;;;;;5074108;28;20977;-69
2022/03/27 10:39:28;;;;;;;15.83;13.63;;;17.50;1.00;;;;;;5073022;28;21113;-69
2022/03/27 10:42:13;;;;;;;19.73;13.73;;;17.90;59.00;;;;;;5073235;28;20610;-69
2022/03/27 10:44:45;;;;;;;19.50;13.37;;;17.70;1.00;;;;;;5074534;28;20575;-70
2022/03/27 10:47:20;;;;;;;19.60;12.50;;;17.80;99.90;;;;;;5074672;28;20590;-68
2022/03/27 10:50:02;;;;;;;16.10;14.40;;;18.10;1.00;;;;;;5073630;28;20618;-69
2022/03/27 10:52:30;;;;;;;17.50;12.63;;;18.30;1.00;;;;;;5074442;28;20633;-68
2022/03/27 10:54:58;;;;;;;17.63;13.77;;;18.20;1.00;;;;;;5073964;28;20619;-69
2022/03/27 10:57:36;;;;;;;16.00;12.57;;;18.20;1.00;;;;;;5074563;28;20666;-69
2022/03/27 11:00:06;;;;;;;17.90;12.70;;;18.20;99.90;;;;;;5073644;28;20956;-69
2022/03/27 11:02:47;;;;;;;16.97;12.90;;;18.60;1.00;;;;;;5074038;28;20618;-68
2022/03/27 11:05:37;;;;;;;18.00;12.57;;;18.60;99.90;;;;;;5073686;28;20638;-68
2022/03/27 11:08:19;;;;;;;21.03;12.60;;;18.60;99.90;;;;;;5073961;28;20582;-68
2022/03/27 11:10:50;;;;;;;17.07;13.00;;;18.90;1.00;;;;;;5074094;28;20656;-69
2022/03/27 11:13:25;;;;;;;18.37;13.60;;;19.30;75.70;;;;;;5073731;28;20633;-69
2022/03/27 11:16:12;;;;;;;14.87;12.77;;;19.30;99.90;;;;;;5073687;28;20608;-69
2022/03/27 11:18:59;;;;;;;16.90;12.80;;;20.20;1.00;;;;;;5072831;28;20953;-69
2022/03/27 11:21:28;;;;;;;22.07;13.70;;;20.30;99.90;;;;;;5073069;28;20622;-69
2022/03/27 11:24:02;;;;;;;19.47;12.10;;;20.10;1.00;;;;;;5072750;28;20610;-69
2022/03/27 11:26:31;;;;;;;19.80;12.70;;;20.70;99.90;;;;;;5072588;28;20632;-69
2022/03/27 11:29:17;;;;;;;18.50;12.90;;;20.70;1.00;;;;;;5072804;28;20687;-69
2022/03/27 11:31:44;;;;;;;18.10;13.23;;;20.00;99.90;;;;;;5072834;28;21129;-69
2022/03/27 11:34:14;;;;;;;15.13;12.10;;;20.60;1.00;;;;;;5073125;28;20614;-68
2022/03/27 11:36:44;;;;;;;19.43;13.00;;;21.20;99.90;;;;;;5073104;28;20695;-69
2022/03/27 11:39:29;;;;;;;15.20;12.30;;;21.80;99.90;;;;;;5074647;28;21010;-69
2022/03/27 11:42:23;;;;;;;15.67;13.73;;;22.00;99.90;;;;;;5074434;28;20589;-69
2022/03/27 11:45:08;;;;;;;15.07;13.33;;;21.90;99.90;;;;;;5074489;28;20622;-69
2022/03/27 11:47:40;;;;;;;15.03;11.40;;;21.30;99.90;;;;;;5074371;28;20586;-69
2022/03/27 11:50:08;;;;;;;15.47;11.63;;;21.40;99.90;;;;;;5072934;28;20583;-69
2022/03/27 11:52:35;;;;;;;18.03;12.07;;;22.10;99.90;;;;;;5073117;28;20981;-69
2022/03/27 11:55:12;;;;;;;15.63;11.53;;;22.80;99.90;;;;;;5072849;28;20618;-69
2022/03/27 11:57:56;;;;;;;19.47;11.60;;;22.00;99.90;;;;;;5073543;28;20679;-69
2022/03/27 12:00:31;;;;;;;19.07;12.17;;;22.50;99.90;;;;;;5074702;28;20602;-68
2022/03/27 12:02:58;;;;;;;15.97;11.60;;;21.80;99.90;;;;;;5076362;28;20621;-67
2022/03/27 12:05:38;;;;;;;20.50;12.10;;;21.80;99.90;;;;;;5076875;28;20650;-68
2022/03/27 12:08:06;;;;;;;14.43;11.30;;;22.50;99.90;;;;;;5077277;28;20614;-68
2022/03/27 12:10:41;;;;;;;18.17;11.83;;;22.80;99.90;;;;;;5077473;28;20680;-68
2022/03/27 12:13:08;;;;;;;14.50;11.00;;;23.20;99.90;;;;;;5077068;28;20621;-69
2022/03/27 12:15:52;;;;;;;14.83;9.93;;;23.00;99.90;;;;;;5077423;28;20626;-68
2022/03/27 12:18:33;;;;;;;13.73;10.77;;;23.50;99.90;;;;;;5077618;28;20661;-69
2022/03/27 12:21:12;;;;;;;15.00;10.97;;;23.00;99.90;;;;;;5077321;28;20610;-69
2022/03/27 12:23:41;;;;;;;16.90;10.37;;;22.90;99.90;;;;;;5077465;28;20621;-68
2022/03/27 12:29:49;;;;;;;11.27;9.23;;;24.00;99.90;;;;;;5076930;28;20590;-68
2022/03/27 12:32:19;;;;;;;14.60;9.80;;;24.10;99.90;;;;;;5076168;28;20626;-69
2022/03/27 12:34:47;;;;;;;19.50;10.67;;;23.50;99.90;;;;;;5076591;28;20602;-68
2022/03/27 12:37:19;;;;;;;11.33;10.07;;;23.60;99.90;;;;;;5076724;28;20665;-69
2022/03/27 12:39:48;;;;;;;17.43;10.67;;;23.70;99.90;;;;;;5076417;28;20637;-68
2022/03/27 12:42:40;;;;;;;16.40;11.00;;;24.40;99.90;;;;;;5076270;28;20617;-68
2022/03/27 12:45:10;;;;;;;13.67;9.60;;;23.80;99.90;;;;;;5076637;28;20571;-69
2022/03/27 12:47:45;;;;;;;15.80;10.13;;;24.00;99.90;;;;;;5076410;28;20621;-68
2022/03/27 12:50:35;;;;;;;14.07;11.20;;;24.40;99.90;;;;;;5075366;28;20633;-69
2022/03/27 12:53:06;;;;;;;13.57;10.43;;;24.30;99.90;;;;;;5075177;28;20695;-69
2022/03/27 12:55:49;;;;;;;12.67;10.30;;;24.40;99.90;;;;;;5075102;28;20574;-69
2022/03/27 12:58:20;;;;;;;14.07;10.30;;;25.00;99.90;;;;;;5075042;28;20630;-68
2022/03/27 13:01:07;;;;;;;13.93;10.20;;;25.20;99.90;;;;;;5075009;28;20626;-69